sensor_id;sensor_type;location;lat;lon;timestamp;temperature;humidity
16271;DHT22;8243;49.048;8.396;2023-02-01T00:01:39;5.10;99.90
16271;DHT22;8243;49.048;8.396;2023-02-01T00:04:05;5.10;99.90
16271;DHT22;8243;49.048;8.396;2023-02-01T00:06:30;5.40;99.90
16271;DHT22;8243;49.048;8.396;2023-02-01T00:08:56;5.20;99.90
16271;DHT22;8243;49.048;8.396;2023-02-01T00:11:23;5.30;99.90
16271;DHT22;8243;49.048;8.396;2023-02-01T00:13:49;4.80;99.90
16271;DHT22;8243;49.048;8.396;2023-02-01T00:16:22;5.40;99.90
16271;DHT22;8243;49.048;8.396;2023-02-01T00:18:50;5.10;99.90
16271;DHT22;8243;49.048;8.396;2023-02-01T00:21:18;5.30;99.90
16271;DHT22;8243;49.048;8.396;2023-02-01T00:23:44;5.10;99.90
16271;DHT22;8243;49.048;8.396;2023-02-01T00:26:16;5.30;99.90
16271;DHT22;8243;49.048;8.396;2023-02-01T00:28:42;5.30;99.90
16271;DHT22;8243;49.048;8.396;2023-02-01T00:31:07;5.40;99.90
16271;DHT22;8243;49.048;8.396;2023-02-01T00:33:33;5.50;99.90
16271;DHT22;8243;49.048;8.396;2023-02-01T00:36:07;5.00;99.90
16271;DHT22;8243;49.048;8.396;2023-02-01T00:38:36;5.30;99.90
16271;DHT22;8243;49.048;8.396;2023-02-01T00:41:16;5.30;99.90
16271;DHT22;8243;49.048;8.396;2023-02-01T00:43:42;5.30;99.90
16271;DHT22;8243;49.048;8.396;2023-02-01T00:46:08;5.50;99.90
16271;DHT22;8243;49.048;8.396;2023-02-01T00:48:34;5.40;99.90
16271;DHT22;8243;49.048;8.396;2023-02-01T00:51:01;5.30;99.90
16271;DHT22;8243;49.048;8.396;2023-02-01T00:53:26;5.40;99.90
16271;DHT22;8243;49.048;8.396;2023-02-01T00:55:52;5.40;99.90
16271;DHT22;8243;49.048;8.396;2023-02-01T00:58:18;5.30;99.90
16271;DHT22;8243;49.048;8.396;2023-02-01T01:00:44;5.40;99.90
16271;DHT22;8243;49.048;8.396;2023-02-01T01:03:09;5.30;99.90
16271;DHT22;8243;49.048;8.396;2023-02-01T01:05:47;5.30;99.90
16271;DHT22;8243;49.048;8.396;2023-02-01T01:08:14;5.40;99.90
16271;DHT22;8243;49.048;8.396;2023-02-01T01:10:40;5.40;99.90
16271;DHT22;8243;49.048;8.396;2023-02-01T01:13:07;5.50;99.90
16271;DHT22;8243;49.048;8.396;2023-02-01T01:15:37;5.40;99.90
16271;DHT22;8243;49.048;8.396;2023-02-01T01:18:03;5.40;99.90
16271;DHT22;8243;49.048;8.396;2023-02-01T01:20:29;5.30;99.90
16271;DHT22;8243;49.048;8.396;2023-02-01T01:22:55;5.30;99.90
16271;DHT22;8243;49.048;8.396;2023-02-01T01:25:20;5.30;99.90
16271;DHT22;8243;49.048;8.396;2023-02-01T01:27:46;5.30;99.90
16271;DHT22;8243;49.048;8.396;2023-02-01T01:30:12;5.40;99.90
16271;DHT22;8243;49.048;8.396;2023-02-01T01:32:37;5.30;99.90
16271;DHT22;8243;49.048;8.396;2023-02-01T01:35:03;5.40;99.90
16271;DHT22;8243;49.048;8.396;2023-02-01T01:37:29;5.30;99.90
16271;DHT22;8243;49.048;8.396;2023-02-01T01:39:54;5.30;99.90
16271;DHT22;8243;49.048;8.396;2023-02-01T01:42:21;5.40;99.90
16271;DHT22;8243;49.048;8.396;2023-02-01T01:47:31;5.50;99.90
16271;DHT22;8243;49.048;8.396;2023-02-01T01:49:59;5.30;99.90
16271;DHT22;8243;49.048;8.396;2023-02-01T01:52:25;5.50;99.90
16271;DHT22;8243;49.048;8.396;2023-02-01T01:54:52;5.40;99.90
16271;DHT22;8243;49.048;8.396;2023-02-01T01:57:22;5.40;99.90
16271;DHT22;8243;49.048;8.396;2023-02-01T01:59:56;5.40;99.90
16271;DHT22;8243;49.048;8.396;2023-02-01T02:02:22;5.50;99.90
16271;DHT22;8243;49.048;8.396;2023-02-01T02:04:48;5.40;99.90
16271;DHT22;8243;49.048;8.396;2023-02-01T02:07:21;5.40;99.90
16271;DHT22;8243;49.048;8.396;2023-02-01T02:09:48;5.30;99.90
16271;DHT22;8243;49.048;8.396;2023-02-01T02:12:14;5.30;99.90
16271;DHT22;8243;49.048;8.396;2023-02-01T02:14:39;5.50;99.90
16271;DHT22;8243;49.048;8.396;2023-02-01T02:17:26;5.30;99.90
16271;DHT22;8243;49.048;8.396;2023-02-01T02:29:03;5.40;99.90
16271;DHT22;8243;49.048;8.396;2023-02-01T02:37:33;5.40;99.90
16271;DHT22;8243;49.048;8.396;2023-02-01T02:42:41;5.60;99.90
16271;DHT22;8243;49.048;8.396;2023-02-01T02:45:30;5.60;99.90
16271;DHT22;8243;49.048;8.396;2023-02-01T02:51:13;5.50;99.90
16271;DHT22;8243;49.048;8.396;2023-02-01T02:54:02;5.30;99.90
16271;DHT22;8243;49.048;8.396;2023-02-01T02:56:49;5.40;99.90
16271;DHT22;8243;49.048;8.396;2023-02-01T02:59:35;5.50;99.90
16271;DHT22;8243;49.048;8.396;2023-02-01T03:02:21;5.40;99.90
16271;DHT22;8243;49.048;8.396;2023-02-01T03:05:06;5.60;99.90
16271;DHT22;8243;49.048;8.396;2023-02-01T03:12:50;5.40;99.90
16271;DHT22;8243;49.048;8.396;2023-02-01T03:18:36;5.40;99.90
16271;DHT22;8243;49.048;8.396;2023-02-01T03:21:09;5.40;99.90
16271;DHT22;8243;49.048;8.396;2023-02-01T03:23:36;5.30;99.90
16271;DHT22;8243;49.048;8.396;2023-02-01T03:26:06;5.30;99.90
16271;DHT22;8243;49.048;8.396;2023-02-01T03:28:34;5.60;99.90
16271;DHT22;8243;49.048;8.396;2023-02-01T03:31:00;5.50;99.90
16271;DHT22;8243;49.048;8.396;2023-02-01T03:33:27;5.40;99.90
16271;DHT22;8243;49.048;8.396;2023-02-01T03:36:13;5.40;99.90
16271;DHT22;8243;49.048;8.396;2023-02-01T03:38:48;5.40;99.90
16271;DHT22;8243;49.048;8.396;2023-02-01T03:41:24;5.40;99.90
16271;DHT22;8243;49.048;8.396;2023-02-01T03:43:53;5.60;99.90
16271;DHT22;8243;49.048;8.396;2023-02-01T03:46:42;5.30;99.90
16271;DHT22;8243;49.048;8.396;2023-02-01T03:49:14;5.60;99.90
16271;DHT22;8243;49.048;8.396;2023-02-01T03:51:41;5.60;99.90
16271;DHT22;8243;49.048;8.396;2023-02-01T03:54:10;5.60;99.90
16271;DHT22;8243;49.048;8.396;2023-02-01T03:56:38;5.40;99.90
16271;DHT22;8243;49.048;8.396;2023-02-01T03:59:04;5.60;99.90
16271;DHT22;8243;49.048;8.396;2023-02-01T04:01:31;5.70;99.90
16271;DHT22;8243;49.048;8.396;2023-02-01T04:03:57;5.20;99.90
16271;DHT22;8243;49.048;8.396;2023-02-01T04:06:24;5.60;99.90
16271;DHT22;8243;49.048;8.396;2023-02-01T04:08:51;5.40;99.90
16271;DHT22;8243;49.048;8.396;2023-02-01T04:11:17;5.60;99.90
16271;DHT22;8243;49.048;8.396;2023-02-01T04:13:43;5.60;99.90
16271;DHT22;8243;49.048;8.396;2023-02-01T04:16:09;5.40;99.90
16271;DHT22;8243;49.048;8.396;2023-02-01T04:18:35;5.60;99.90
16271;DHT22;8243;49.048;8.396;2023-02-01T04:21:01;5.70;99.90
16271;DHT22;8243;49.048;8.396;2023-02-01T04:23:27;5.60;99.90
16271;DHT22;8243;49.048;8.396;2023-02-01T04:25:53;5.50;99.90
16271;DHT22;8243;49.048;8.396;2023-02-01T04:28:20;5.40;99.90
16271;DHT22;8243;49.048;8.396;2023-02-01T04:30:45;5.20;99.90
16271;DHT22;8243;49.048;8.396;2023-02-01T04:33:11;5.40;99.90
16271;DHT22;8243;49.048;8.396;2023-02-01T04:35:39;5.40;99.90
16271;DHT22;8243;49.048;8.396;2023-02-01T04:38:05;5.40;99.90
16271;DHT22;8243;49.048;8.396;2023-02-01T04:40:30;5.50;99.90
16271;DHT22;8243;49.048;8.396;2023-02-01T04:42:56;5.40;99.90
16271;DHT22;8243;49.048;8.396;2023-02-01T04:45:21;5.30;99.90
16271;DHT22;8243;49.048;8.396;2023-02-01T04:47:47;5.20;99.90
16271;DHT22;8243;49.048;8.396;2023-02-01T04:50:14;5.30;99.90
16271;DHT22;8243;49.048;8.396;2023-02-01T04:52:39;5.20;99.90
16271;DHT22;8243;49.048;8.396;2023-02-01T04:55:06;5.20;99.90
16271;DHT22;8243;49.048;8.396;2023-02-01T04:57:31;5.20;99.90
16271;DHT22;8243;49.048;8.396;2023-02-01T04:59:57;5.10;99.90
16271;DHT22;8243;49.048;8.396;2023-02-01T05:02:22;5.40;99.90
16271;DHT22;8243;49.048;8.396;2023-02-01T05:04:48;5.20;99.90
16271;DHT22;8243;49.048;8.396;2023-02-01T05:07:13;5.20;99.90
16271;DHT22;8243;49.048;8.396;2023-02-01T05:09:39;5.20;99.90
16271;DHT22;8243;49.048;8.396;2023-02-01T05:12:05;5.10;99.90
16271;DHT22;8243;49.048;8.396;2023-02-01T05:14:49;5.40;99.90
16271;DHT22;8243;49.048;8.396;2023-02-01T05:17:15;5.30;99.90
16271;DHT22;8243;49.048;8.396;2023-02-01T05:19:40;5.40;99.90
16271;DHT22;8243;49.048;8.396;2023-02-01T05:22:06;5.30;99.90
16271;DHT22;8243;49.048;8.396;2023-02-01T05:24:31;5.00;99.90
16271;DHT22;8243;49.048;8.396;2023-02-01T05:26:57;5.10;99.90
16271;DHT22;8243;49.048;8.396;2023-02-01T05:29:22;5.20;99.90
16271;DHT22;8243;49.048;8.396;2023-02-01T05:31:48;5.20;99.90
16271;DHT22;8243;49.048;8.396;2023-02-01T05:34:14;5.10;99.90
16271;DHT22;8243;49.048;8.396;2023-02-01T05:36:40;5.40;99.90
16271;DHT22;8243;49.048;8.396;2023-02-01T05:39:06;5.30;99.90
16271;DHT22;8243;49.048;8.396;2023-02-01T05:41:32;5.20;99.90
16271;DHT22;8243;49.048;8.396;2023-02-01T05:43:57;5.20;99.90
16271;DHT22;8243;49.048;8.396;2023-02-01T05:46:23;5.40;99.90
16271;DHT22;8243;49.048;8.396;2023-02-01T05:48:49;5.30;99.90
16271;DHT22;8243;49.048;8.396;2023-02-01T05:51:14;5.20;99.90
16271;DHT22;8243;49.048;8.396;2023-02-01T05:53:40;5.60;99.90
16271;DHT22;8243;49.048;8.396;2023-02-01T05:56:06;5.40;99.90
16271;DHT22;8243;49.048;8.396;2023-02-01T05:58:31;5.20;99.90
16271;DHT22;8243;49.048;8.396;2023-02-01T06:01:01;5.30;99.90
16271;DHT22;8243;49.048;8.396;2023-02-01T06:03:27;5.30;99.90
16271;DHT22;8243;49.048;8.396;2023-02-01T06:05:53;5.50;99.90
16271;DHT22;8243;49.048;8.396;2023-02-01T06:08:18;5.40;99.90
16271;DHT22;8243;49.048;8.396;2023-02-01T06:10:44;5.40;99.90
16271;DHT22;8243;49.048;8.396;2023-02-01T06:13:10;5.30;99.90
16271;DHT22;8243;49.048;8.396;2023-02-01T06:15:35;5.30;99.90
16271;DHT22;8243;49.048;8.396;2023-02-01T06:18:03;5.40;99.90
16271;DHT22;8243;49.048;8.396;2023-02-01T06:20:29;5.30;99.90
16271;DHT22;8243;49.048;8.396;2023-02-01T06:22:54;5.20;99.90
16271;DHT22;8243;49.048;8.396;2023-02-01T06:25:20;5.30;99.90
16271;DHT22;8243;49.048;8.396;2023-02-01T06:27:46;5.30;99.90
16271;DHT22;8243;49.048;8.396;2023-02-01T06:30:12;5.30;99.90
16271;DHT22;8243;49.048;8.396;2023-02-01T06:32:41;5.30;99.90
16271;DHT22;8243;49.048;8.396;2023-02-01T06:35:10;5.50;99.90
16271;DHT22;8243;49.048;8.396;2023-02-01T06:37:41;5.60;99.90
16271;DHT22;8243;49.048;8.396;2023-02-01T06:40:07;5.50;99.90
16271;DHT22;8243;49.048;8.396;2023-02-01T06:42:34;5.40;99.90
16271;DHT22;8243;49.048;8.396;2023-02-01T06:44:59;5.60;99.90
16271;DHT22;8243;49.048;8.396;2023-02-01T06:47:25;5.50;99.90
16271;DHT22;8243;49.048;8.396;2023-02-01T06:49:50;5.70;99.90
16271;DHT22;8243;49.048;8.396;2023-02-01T06:52:16;5.60;99.90
16271;DHT22;8243;49.048;8.396;2023-02-01T06:54:41;5.60;99.90
16271;DHT22;8243;49.048;8.396;2023-02-01T06:57:07;5.60;99.90
16271;DHT22;8243;49.048;8.396;2023-02-01T06:59:32;5.70;99.90
16271;DHT22;8243;49.048;8.396;2023-02-01T07:01:58;5.60;99.90
16271;DHT22;8243;49.048;8.396;2023-02-01T07:04:23;5.90;99.90
16271;DHT22;8243;49.048;8.396;2023-02-01T07:06:49;5.20;99.90
16271;DHT22;8243;49.048;8.396;2023-02-01T07:09:14;5.80;99.90
16271;DHT22;8243;49.048;8.396;2023-02-01T07:11:40;5.60;99.90
16271;DHT22;8243;49.048;8.396;2023-02-01T07:14:10;5.60;99.90
16271;DHT22;8243;49.048;8.396;2023-02-01T07:16:36;5.70;99.90
16271;DHT22;8243;49.048;8.396;2023-02-01T07:19:01;5.30;99.90
16271;DHT22;8243;49.048;8.396;2023-02-01T07:21:27;5.50;99.90
16271;DHT22;8243;49.048;8.396;2023-02-01T07:23:55;5.30;99.90
16271;DHT22;8243;49.048;8.396;2023-02-01T07:26:21;5.40;99.90
16271;DHT22;8243;49.048;8.396;2023-02-01T07:28:47;5.40;99.90
16271;DHT22;8243;49.048;8.396;2023-02-01T07:31:17;5.50;99.90
16271;DHT22;8243;49.048;8.396;2023-02-01T07:33:44;5.40;99.90
16271;DHT22;8243;49.048;8.396;2023-02-01T07:36:13;5.60;99.90
16271;DHT22;8243;49.048;8.396;2023-02-01T07:38:38;5.40;99.90
16271;DHT22;8243;49.048;8.396;2023-02-01T07:41:05;5.50;99.90
16271;DHT22;8243;49.048;8.396;2023-02-01T07:43:31;5.00;99.90
16271;DHT22;8243;49.048;8.396;2023-02-01T07:45:58;5.50;99.90
16271;DHT22;8243;49.048;8.396;2023-02-01T07:48:25;5.70;99.90
16271;DHT22;8243;49.048;8.396;2023-02-01T07:50:58;5.50;99.90
16271;DHT22;8243;49.048;8.396;2023-02-01T07:53:24;5.60;99.90
16271;DHT22;8243;49.048;8.396;2023-02-01T07:55:50;5.60;99.90
16271;DHT22;8243;49.048;8.396;2023-02-01T07:58:15;5.60;99.90
16271;DHT22;8243;49.048;8.396;2023-02-01T08:00:41;5.50;99.90
16271;DHT22;8243;49.048;8.396;2023-02-01T08:03:25;5.70;99.90
16271;DHT22;8243;49.048;8.396;2023-02-01T08:05:55;5.70;99.90
16271;DHT22;8243;49.048;8.396;2023-02-01T08:08:21;5.70;99.90
16271;DHT22;8243;49.048;8.396;2023-02-01T08:10:46;5.50;99.90
16271;DHT22;8243;49.048;8.396;2023-02-01T08:13:11;6.30;99.90
16271;DHT22;8243;49.048;8.396;2023-02-01T08:15:37;6.80;99.90
16271;DHT22;8243;49.048;8.396;2023-02-01T08:18:03;6.70;99.90
16271;DHT22;8243;49.048;8.396;2023-02-01T08:20:28;6.60;99.90
16271;DHT22;8243;49.048;8.396;2023-02-01T08:22:54;6.50;99.90
16271;DHT22;8243;49.048;8.396;2023-02-01T08:25:20;6.40;99.90
16271;DHT22;8243;49.048;8.396;2023-02-01T08:27:46;6.30;99.90
16271;DHT22;8243;49.048;8.396;2023-02-01T08:30:12;6.20;99.90
16271;DHT22;8243;49.048;8.396;2023-02-01T08:32:38;6.30;99.90
16271;DHT22;8243;49.048;8.396;2023-02-01T08:35:04;6.20;99.90
16271;DHT22;8243;49.048;8.396;2023-02-01T08:37:30;6.10;99.90
16271;DHT22;8243;49.048;8.396;2023-02-01T08:39:56;5.70;99.90
16271;DHT22;8243;49.048;8.396;2023-02-01T08:42:22;6.00;99.90
16271;DHT22;8243;49.048;8.396;2023-02-01T08:45:07;5.80;99.90
16271;DHT22;8243;49.048;8.396;2023-02-01T08:47:33;5.40;99.90
16271;DHT22;8243;49.048;8.396;2023-02-01T08:49:59;5.80;99.90
16271;DHT22;8243;49.048;8.396;2023-02-01T08:52:25;5.80;99.90
16271;DHT22;8243;49.048;8.396;2023-02-01T08:54:51;5.70;99.90
16271;DHT22;8243;49.048;8.396;2023-02-01T08:57:16;5.70;99.90
16271;DHT22;8243;49.048;8.396;2023-02-01T08:59:42;5.70;99.90
16271;DHT22;8243;49.048;8.396;2023-02-01T09:02:12;5.70;99.90
16271;DHT22;8243;49.048;8.396;2023-02-01T09:04:38;6.00;99.90
16271;DHT22;8243;49.048;8.396;2023-02-01T09:07:04;6.10;99.90
16271;DHT22;8243;49.048;8.396;2023-02-01T09:09:29;6.20;99.90
16271;DHT22;8243;49.048;8.396;2023-02-01T09:11:55;6.30;99.90
16271;DHT22;8243;49.048;8.396;2023-02-01T09:14:21;6.30;99.90
16271;DHT22;8243;49.048;8.396;2023-02-01T09:16:46;6.40;99.90
16271;DHT22;8243;49.048;8.396;2023-02-01T09:19:12;6.50;99.90
16271;DHT22;8243;49.048;8.396;2023-02-01T09:21:37;6.60;99.90
16271;DHT22;8243;49.048;8.396;2023-02-01T09:24:03;6.80;99.90
16271;DHT22;8243;49.048;8.396;2023-02-01T09:26:29;6.80;99.90
16271;DHT22;8243;49.048;8.396;2023-02-01T09:28:55;6.80;99.90
16271;DHT22;8243;49.048;8.396;2023-02-01T09:31:20;6.80;99.90
16271;DHT22;8243;49.048;8.396;2023-02-01T09:33:46;6.80;99.90
16271;DHT22;8243;49.048;8.396;2023-02-01T09:36:11;6.90;99.90
16271;DHT22;8243;49.048;8.396;2023-02-01T09:38:37;7.00;99.90
16271;DHT22;8243;49.048;8.396;2023-02-01T09:41:10;7.00;99.90
16271;DHT22;8243;49.048;8.396;2023-02-01T09:43:43;6.90;99.90
16271;DHT22;8243;49.048;8.396;2023-02-01T09:46:21;6.80;99.90
16271;DHT22;8243;49.048;8.396;2023-02-01T09:48:49;6.70;99.90
16271;DHT22;8243;49.048;8.396;2023-02-01T09:51:22;6.60;99.90
16271;DHT22;8243;49.048;8.396;2023-02-01T09:54:00;6.60;99.90
16271;DHT22;8243;49.048;8.396;2023-02-01T09:56:42;6.60;99.90
16271;DHT22;8243;49.048;8.396;2023-02-01T09:59:24;6.60;99.90
16271;DHT22;8243;49.048;8.396;2023-02-01T10:01:54;6.60;99.90
16271;DHT22;8243;49.048;8.396;2023-02-01T10:04:19;6.70;99.90
16271;DHT22;8243;49.048;8.396;2023-02-01T10:12:48;6.80;99.90
16271;DHT22;8243;49.048;8.396;2023-02-01T10:26:33;7.10;99.90
16271;DHT22;8243;49.048;8.396;2023-02-01T10:29:03;7.10;99.90
16271;DHT22;8243;49.048;8.396;2023-02-01T10:31:33;7.10;99.90
16271;DHT22;8243;49.048;8.396;2023-02-01T10:34:09;7.10;99.90
16271;DHT22;8243;49.048;8.396;2023-02-01T10:36:44;7.20;99.90
16271;DHT22;8243;49.048;8.396;2023-02-01T10:39:14;7.30;99.90
16271;DHT22;8243;49.048;8.396;2023-02-01T10:41:40;7.20;99.90
16271;DHT22;8243;49.048;8.396;2023-02-01T10:44:14;7.20;99.90
16271;DHT22;8243;49.048;8.396;2023-02-01T10:46:40;7.30;99.90
16271;DHT22;8243;49.048;8.396;2023-02-01T10:49:13;7.20;99.90
16271;DHT22;8243;49.048;8.396;2023-02-01T10:52:09;7.30;99.90
16271;DHT22;8243;49.048;8.396;2023-02-01T10:54:38;7.30;99.90
16271;DHT22;8243;49.048;8.396;2023-02-01T10:57:08;7.30;99.90
16271;DHT22;8243;49.048;8.396;2023-02-01T10:59:34;7.20;99.90
16271;DHT22;8243;49.048;8.396;2023-02-01T11:02:14;7.20;99.90
16271;DHT22;8243;49.048;8.396;2023-02-01T11:04:41;7.20;99.90
16271;DHT22;8243;49.048;8.396;2023-02-01T11:07:23;7.10;99.90
16271;DHT22;8243;49.048;8.396;2023-02-01T11:09:52;7.10;99.90
16271;DHT22;8243;49.048;8.396;2023-02-01T11:12:32;7.10;99.90
16271;DHT22;8243;49.048;8.396;2023-02-01T11:15:03;7.10;99.90
16271;DHT22;8243;49.048;8.396;2023-02-01T11:17:50;7.10;99.90
16271;DHT22;8243;49.048;8.396;2023-02-01T11:20:37;7.10;99.90
16271;DHT22;8243;49.048;8.396;2023-02-01T11:23:05;7.00;99.90
16271;DHT22;8243;49.048;8.396;2023-02-01T11:25:32;7.00;99.90
16271;DHT22;8243;49.048;8.396;2023-02-01T11:28:01;7.00;99.90
16271;DHT22;8243;49.048;8.396;2023-02-01T11:30:37;7.00;99.90
16271;DHT22;8243;49.048;8.396;2023-02-01T11:33:05;7.00;99.90
16271;DHT22;8243;49.048;8.396;2023-02-01T11:35:32;6.90;99.90
16271;DHT22;8243;49.048;8.396;2023-02-01T11:38:09;7.00;99.90
16271;DHT22;8243;49.048;8.396;2023-02-01T11:40:37;7.00;99.90
16271;DHT22;8243;49.048;8.396;2023-02-01T11:45:59;7.10;99.90
16271;DHT22;8243;49.048;8.396;2023-02-01T11:48:27;7.20;99.90
16271;DHT22;8243;49.048;8.396;2023-02-01T11:51:04;7.20;99.90
16271;DHT22;8243;49.048;8.396;2023-02-01T11:54:10;7.20;99.90
16271;DHT22;8243;49.048;8.396;2023-02-01T12:02:24;7.10;99.90
16271;DHT22;8243;49.048;8.396;2023-02-01T12:07:57;7.10;99.90
16271;DHT22;8243;49.048;8.396;2023-02-01T12:13:27;7.10;99.90
16271;DHT22;8243;49.048;8.396;2023-02-01T12:19:17;7.10;99.90
16271;DHT22;8243;49.048;8.396;2023-02-01T12:25:14;7.10;99.90
16271;DHT22;8243;49.048;8.396;2023-02-01T12:30:44;7.10;99.90
16271;DHT22;8243;49.048;8.396;2023-02-01T12:36:25;7.20;99.70
16271;DHT22;8243;49.048;8.396;2023-02-01T12:41:53;7.20;99.20
16271;DHT22;8243;49.048;8.396;2023-02-01T12:49:45;7.20;98.70
16271;DHT22;8243;49.048;8.396;2023-02-01T12:52:46;7.20;99.00
16271;DHT22;8243;49.048;8.396;2023-02-01T12:55:41;7.20;98.00
16271;DHT22;8243;49.048;8.396;2023-02-01T12:58:18;7.20;97.40
16271;DHT22;8243;49.048;8.396;2023-02-01T13:01:03;7.30;96.10
16271;DHT22;8243;49.048;8.396;2023-02-01T13:03:35;7.30;95.50
16271;DHT22;8243;49.048;8.396;2023-02-01T13:06:18;7.30;95.10
16271;DHT22;8243;49.048;8.396;2023-02-01T13:09:00;7.40;94.50
16271;DHT22;8243;49.048;8.396;2023-02-01T13:11:35;7.30;94.00
16271;DHT22;8243;49.048;8.396;2023-02-01T13:16:48;7.30;93.60
16271;DHT22;8243;49.048;8.396;2023-02-01T13:19:47;7.30;93.40
16271;DHT22;8243;49.048;8.396;2023-02-01T13:22:43;7.40;93.30
16271;DHT22;8243;49.048;8.396;2023-02-01T13:25:39;7.40;93.20
16271;DHT22;8243;49.048;8.396;2023-02-01T13:28:34;7.40;93.20
16271;DHT22;8243;49.048;8.396;2023-02-01T13:36:43;7.50;93.00
16271;DHT22;8243;49.048;8.396;2023-02-01T13:44:31;7.50;92.50
16271;DHT22;8243;49.048;8.396;2023-02-01T13:47:02;7.50;92.00
16271;DHT22;8243;49.048;8.396;2023-02-01T13:49:33;7.60;91.70
16271;DHT22;8243;49.048;8.396;2023-02-01T13:52:02;7.50;90.90
16271;DHT22;8243;49.048;8.396;2023-02-01T13:54:31;7.60;90.80
16271;DHT22;8243;49.048;8.396;2023-02-01T13:57:02;7.60;90.10
16271;DHT22;8243;49.048;8.396;2023-02-01T13:59:50;7.60;90.10
16271;DHT22;8243;49.048;8.396;2023-02-01T14:05:07;7.70;88.60
16271;DHT22;8243;49.048;8.396;2023-02-01T14:07:33;7.70;87.60
16271;DHT22;8243;49.048;8.396;2023-02-01T14:11:04;7.70;87.10
16271;DHT22;8243;49.048;8.396;2023-02-01T14:13:39;7.70;86.50
16271;DHT22;8243;49.048;8.396;2023-02-01T14:23:55;7.60;85.90
16271;DHT22;8243;49.048;8.396;2023-02-01T14:26:51;7.60;84.10
16271;DHT22;8243;49.048;8.396;2023-02-01T14:29:29;7.60;84.20
16271;DHT22;8243;49.048;8.396;2023-02-01T14:32:19;7.60;83.30
16271;DHT22;8243;49.048;8.396;2023-02-01T14:56:26;8.10;74.30
16271;DHT22;8243;49.048;8.396;2023-02-01T15:01:20;8.20;72.90
16271;DHT22;8243;49.048;8.396;2023-02-01T15:06:30;8.10;71.60
16271;DHT22;8243;49.048;8.396;2023-02-01T15:09:02;8.10;72.20
16271;DHT22;8243;49.048;8.396;2023-02-01T15:11:28;8.00;71.70
16271;DHT22;8243;49.048;8.396;2023-02-01T15:13:54;8.00;72.00
16271;DHT22;8243;49.048;8.396;2023-02-01T15:16:24;8.00;72.60
16271;DHT22;8243;49.048;8.396;2023-02-01T15:18:50;8.00;72.60
16271;DHT22;8243;49.048;8.396;2023-02-01T15:21:18;7.90;72.00
16271;DHT22;8243;49.048;8.396;2023-02-01T15:23:44;7.90;71.20
16271;DHT22;8243;49.048;8.396;2023-02-01T15:26:28;7.90;70.90
16271;DHT22;8243;49.048;8.396;2023-02-01T15:28:53;7.90;71.40
16271;DHT22;8243;49.048;8.396;2023-02-01T15:31:36;7.90;72.30
16271;DHT22;8243;49.048;8.396;2023-02-01T15:34:02;7.80;71.80
16271;DHT22;8243;49.048;8.396;2023-02-01T15:36:28;7.80;72.10
16271;DHT22;8243;49.048;8.396;2023-02-01T15:39:23;7.80;72.60
16271;DHT22;8243;49.048;8.396;2023-02-01T15:41:55;7.90;72.20
16271;DHT22;8243;49.048;8.396;2023-02-01T15:44:39;7.80;72.50
16271;DHT22;8243;49.048;8.396;2023-02-01T15:47:15;7.80;72.60
16271;DHT22;8243;49.048;8.396;2023-02-01T15:49:43;7.70;72.50
16271;DHT22;8243;49.048;8.396;2023-02-01T15:52:37;7.70;73.20
16271;DHT22;8243;49.048;8.396;2023-02-01T15:55:34;7.60;72.90
16271;DHT22;8243;49.048;8.396;2023-02-01T15:58:08;7.60;72.50
16271;DHT22;8243;49.048;8.396;2023-02-01T16:00:54;7.70;72.50
16271;DHT22;8243;49.048;8.396;2023-02-01T16:06:00;7.70;71.70
16271;DHT22;8243;49.048;8.396;2023-02-01T16:08:28;7.70;72.40
16271;DHT22;8243;49.048;8.396;2023-02-01T16:11:00;7.60;72.30
16271;DHT22;8243;49.048;8.396;2023-02-01T16:13:27;7.60;72.70
16271;DHT22;8243;49.048;8.396;2023-02-01T16:15:52;7.60;73.40
16271;DHT22;8243;49.048;8.396;2023-02-01T16:18:18;7.60;73.40
16271;DHT22;8243;49.048;8.396;2023-02-01T16:20:44;7.50;73.60
16271;DHT22;8243;49.048;8.396;2023-02-01T16:23:10;7.50;73.80
16271;DHT22;8243;49.048;8.396;2023-02-01T16:25:36;7.50;74.70
16271;DHT22;8243;49.048;8.396;2023-02-01T16:28:03;7.50;74.10
16271;DHT22;8243;49.048;8.396;2023-02-01T16:30:30;7.50;74.30
16271;DHT22;8243;49.048;8.396;2023-02-01T16:32:58;7.50;74.50
16271;DHT22;8243;49.048;8.396;2023-02-01T16:35:33;7.40;74.20
16271;DHT22;8243;49.048;8.396;2023-02-01T16:38:05;7.40;74.60
16271;DHT22;8243;49.048;8.396;2023-02-01T16:40:38;7.40;75.00
16271;DHT22;8243;49.048;8.396;2023-02-01T16:43:23;7.40;75.40
16271;DHT22;8243;49.048;8.396;2023-02-01T16:45:53;7.40;75.70
16271;DHT22;8243;49.048;8.396;2023-02-01T16:48:29;7.40;76.20
16271;DHT22;8243;49.048;8.396;2023-02-01T16:50:57;7.40;75.90
16271;DHT22;8243;49.048;8.396;2023-02-01T16:53:25;7.40;76.00
16271;DHT22;8243;49.048;8.396;2023-02-01T16:55:53;7.30;76.00
16271;DHT22;8243;49.048;8.396;2023-02-01T16:58:20;7.40;76.70
16271;DHT22;8243;49.048;8.396;2023-02-01T17:00:47;7.30;77.30
16271;DHT22;8243;49.048;8.396;2023-02-01T17:03:13;7.30;78.00
16271;DHT22;8243;49.048;8.396;2023-02-01T17:05:49;7.30;77.50
16271;DHT22;8243;49.048;8.396;2023-02-01T17:08:26;7.30;77.20
16271;DHT22;8243;49.048;8.396;2023-02-01T17:10:53;7.40;76.40
16271;DHT22;8243;49.048;8.396;2023-02-01T17:13:19;7.30;77.40
16271;DHT22;8243;49.048;8.396;2023-02-01T17:16:06;7.30;77.30
16271;DHT22;8243;49.048;8.396;2023-02-01T17:18:34;7.30;77.60
16271;DHT22;8243;49.048;8.396;2023-02-01T17:21:02;7.30;77.60
16271;DHT22;8243;49.048;8.396;2023-02-01T17:23:29;7.30;77.60
16271;DHT22;8243;49.048;8.396;2023-02-01T17:25:55;7.30;77.60
16271;DHT22;8243;49.048;8.396;2023-02-01T17:28:22;7.20;78.60
16271;DHT22;8243;49.048;8.396;2023-02-01T17:30:48;7.30;78.50
16271;DHT22;8243;49.048;8.396;2023-02-01T17:33:21;7.20;79.00
16271;DHT22;8243;49.048;8.396;2023-02-01T17:35:48;7.20;79.10
16271;DHT22;8243;49.048;8.396;2023-02-01T17:38:16;7.20;79.10
16271;DHT22;8243;49.048;8.396;2023-02-01T17:40:42;7.20;79.00
16271;DHT22;8243;49.048;8.396;2023-02-01T17:43:12;7.20;78.20
16271;DHT22;8243;49.048;8.396;2023-02-01T17:45:51;7.20;78.40
16271;DHT22;8243;49.048;8.396;2023-02-01T17:48:18;7.20;78.10
16271;DHT22;8243;49.048;8.396;2023-02-01T17:50:45;7.20;77.90
16271;DHT22;8243;49.048;8.396;2023-02-01T17:53:12;7.30;77.60
16271;DHT22;8243;49.048;8.396;2023-02-01T17:55:41;7.30;77.60
16271;DHT22;8243;49.048;8.396;2023-02-01T17:58:12;7.30;78.00
16271;DHT22;8243;49.048;8.396;2023-02-01T18:00:39;7.30;77.60
16271;DHT22;8243;49.048;8.396;2023-02-01T18:03:05;7.20;78.00
16271;DHT22;8243;49.048;8.396;2023-02-01T18:05:41;7.30;77.20
16271;DHT22;8243;49.048;8.396;2023-02-01T18:08:09;7.30;77.60
16271;DHT22;8243;49.048;8.396;2023-02-01T18:10:35;7.30;77.30
16271;DHT22;8243;49.048;8.396;2023-02-01T18:13:02;7.20;77.60
16271;DHT22;8243;49.048;8.396;2023-02-01T18:15:29;7.30;77.60
16271;DHT22;8243;49.048;8.396;2023-02-01T18:17:55;7.30;77.70
16271;DHT22;8243;49.048;8.396;2023-02-01T18:20:23;7.30;77.60
16271;DHT22;8243;49.048;8.396;2023-02-01T18:22:49;7.30;77.60
16271;DHT22;8243;49.048;8.396;2023-02-01T18:25:26;7.30;77.60
16271;DHT22;8243;49.048;8.396;2023-02-01T18:27:54;7.20;77.60
16271;DHT22;8243;49.048;8.396;2023-02-01T18:30:23;7.20;77.90
16271;DHT22;8243;49.048;8.396;2023-02-01T18:32:49;7.20;77.60
16271;DHT22;8243;49.048;8.396;2023-02-01T18:35:26;7.20;77.60
16271;DHT22;8243;49.048;8.396;2023-02-01T18:37:52;7.20;77.70
16271;DHT22;8243;49.048;8.396;2023-02-01T18:40:23;7.30;77.70